createdAt,value
2019-05-10T00:01:04.771Z,13.27
2019-05-10T00:02:14.809Z,13.28
2019-05-10T00:03:24.805Z,13.24
2019-05-10T00:04:34.269Z,13.31
2019-05-10T00:05:44.246Z,13.3
2019-05-10T00:06:53.959Z,13.31
2019-05-10T00:08:03.906Z,13.27
2019-05-10T00:09:13.873Z,13.31
2019-05-10T00:10:23.829Z,13.24
2019-05-10T00:11:33.313Z,13.12
2019-05-10T00:12:43.287Z,13.13
2019-05-10T00:13:53.012Z,13.13
2019-05-10T00:15:02.722Z,13.09
2019-05-10T00:16:12.805Z,13.08
2019-05-10T00:17:22.786Z,13.11
2019-05-10T00:18:32.749Z,13.24
2019-05-10T00:19:42.738Z,13.19
2019-05-10T00:20:52.516Z,13.21
2019-05-10T00:22:02.225Z,13.26
2019-05-10T00:23:11.936Z,13.24
2019-05-10T00:24:21.908Z,13.27
2019-05-10T00:25:31.878Z,13.21
2019-05-10T00:26:41.610Z,13.3
2019-05-10T00:27:51.110Z,13.33
2019-05-10T00:29:00.820Z,13.37
2019-05-10T00:30:10.772Z,13.4
2019-05-10T00:31:20.730Z,13.31
2019-05-10T00:32:30.688Z,13.33
2019-05-10T00:33:40.140Z,13.4
2019-05-10T00:34:49.833Z,13.39
2019-05-10T00:35:59.792Z,13.26
2019-05-10T00:37:09.749Z,13.19
2019-05-10T00:38:19.484Z,13.03
2019-05-10T00:39:29.443Z,12.91
2019-05-10T00:40:39.151Z,12.98
2019-05-10T00:41:48.862Z,12.94
2019-05-10T00:42:58.566Z,12.83
2019-05-10T00:44:08.541Z,12.87
2019-05-10T00:45:18.484Z,12.88
2019-05-10T00:46:28.454Z,12.98
2019-05-10T00:47:38.431Z,12.94
2019-05-10T00:48:48.159Z,12.94
2019-05-10T00:49:58.121Z,12.83
2019-05-10T00:51:08.141Z,12.78
2019-05-10T00:52:17.847Z,12.86
2019-05-10T00:53:27.790Z,12.86
2019-05-10T00:54:37.503Z,12.8
2019-05-10T00:55:47.476Z,12.8
2019-05-10T00:56:56.930Z,12.84
2019-05-10T00:58:06.893Z,12.81
2019-05-10T00:59:16.901Z,12.88
2019-05-10T01:00:26.852Z,12.91
2019-05-10T01:01:36.565Z,12.99
2019-05-10T01:02:46.057Z,12.94
2019-05-10T01:03:56.062Z,12.88
2019-05-10T01:05:06.039Z,12.99
2019-05-10T01:06:16.017Z,12.93
2019-05-10T01:07:25.990Z,12.99
2019-05-10T01:08:35.951Z,12.99
2019-05-10T01:09:45.660Z,13.03
2019-05-10T01:10:55.630Z,13.03
2019-05-10T01:12:05.594Z,13.09
2019-05-10T01:13:15.571Z,13.09
2019-05-10T01:14:25.534Z,13.09
2019-05-10T01:15:35.501Z,13.09
2019-05-10T01:16:45.465Z,13.09
2019-05-10T01:17:55.171Z,13.16
2019-05-10T01:19:05.143Z,13.16
2019-05-10T01:20:15.167Z,13.24
2019-05-10T01:21:25.138Z,13.21
2019-05-10T01:22:35.345Z,13.23
2019-05-10T01:23:45.059Z,13.21
2019-05-10T01:24:54.760Z,13.2
2019-05-10T01:26:04.727Z,13.23
2019-05-10T01:27:14.695Z,13.26
2019-05-10T01:28:24.806Z,13.27
2019-05-10T01:29:34.535Z,13.23
2019-05-10T01:30:44.238Z,13.27
2019-05-10T01:31:53.954Z,13.27
2019-05-10T01:33:03.725Z,13.23
2019-05-10T01:34:13.694Z,13.17
2019-05-10T01:35:23.690Z,13.2
2019-05-10T01:36:33.705Z,13.12
2019-05-10T01:37:43.425Z,13.11
2019-05-10T01:38:53.405Z,13.17
2019-05-10T01:40:03.388Z,13.26
2019-05-10T01:41:13.093Z,13.12
2019-05-10T01:42:23.055Z,13.11
2019-05-10T01:43:33.028Z,13.08
2019-05-10T01:44:42.982Z,13.11
2019-05-10T01:45:52.720Z,13.13
2019-05-10T01:47:02.724Z,13.11
2019-05-10T01:48:12.692Z,13.2
2019-05-10T01:49:22.491Z,13.06
2019-05-10T01:50:32.458Z,13.09
2019-05-10T01:51:42.185Z,13.12
2019-05-10T01:52:51.904Z,13.11
2019-05-10T01:54:01.892Z,13.09
2019-05-10T01:55:11.933Z,13.11
2019-05-10T01:56:21.964Z,13.12
2019-05-10T01:57:31.916Z,13.09
2019-05-10T01:58:41.651Z,13.11
2019-05-10T01:59:51.606Z,13.06
2019-05-10T02:01:01.646Z,13.11
2019-05-10T02:02:11.625Z,13.09
2019-05-10T02:03:21.339Z,13.16
2019-05-10T02:04:31.060Z,13.09
2019-05-10T02:05:40.852Z,13.08
2019-05-10T02:06:50.848Z,13.11
2019-05-10T02:08:00.558Z,13.08
2019-05-10T02:09:10.291Z,13.05
2019-05-10T02:10:20.263Z,13.08
2019-05-10T02:11:30.234Z,13.08
2019-05-10T02:12:39.954Z,13.09
2019-05-10T02:13:49.911Z,13.08
2019-05-10T02:14:59.625Z,13.08
2019-05-10T02:16:09.387Z,13.13
2019-05-10T02:17:19.108Z,13.12
2019-05-10T02:18:28.909Z,13.08
2019-05-10T02:19:38.619Z,13.12
2019-05-10T02:20:48.595Z,13.09
2019-05-10T02:21:58.632Z,13.05
2019-05-10T02:23:08.387Z,13.08
2019-05-10T02:24:18.354Z,13.11
2019-05-10T02:25:28.311Z,13.13
2019-05-10T02:26:38.017Z,13.11
2019-05-10T02:27:47.995Z,13.09
2019-05-10T02:28:57.964Z,13.05
2019-05-10T02:30:07.996Z,13.11
2019-05-10T02:31:21.396Z,13.05
2019-05-10T02:32:31.657Z,13.08
2019-05-10T02:33:41.642Z,13.09
2019-05-10T02:34:51.646Z,13.11
2019-05-10T02:36:01.618Z,13.06
2019-05-10T02:37:11.708Z,13.01
2019-05-10T02:38:21.746Z,12.94
2019-05-10T02:39:31.766Z,12.94
2019-05-10T02:40:41.780Z,12.99
2019-05-10T02:41:51.742Z,12.98
2019-05-10T02:43:01.565Z,12.95
2019-05-10T02:44:11.537Z,12.95
2019-05-10T02:45:21.264Z,12.9
2019-05-10T02:46:30.982Z,12.88
2019-05-10T02:47:40.726Z,12.95
2019-05-10T02:48:50.739Z,12.9
2019-05-10T02:50:03.922Z,12.94
2019-05-10T02:51:13.423Z,12.88
2019-05-10T02:52:23.152Z,12.88
2019-05-10T02:53:33.109Z,12.9
2019-05-10T02:54:43.080Z,12.93
2019-05-10T02:55:52.799Z,12.88
2019-05-10T02:57:02.765Z,12.87
2019-05-10T02:58:17.294Z,12.93
2019-05-10T02:59:26.774Z,12.94
2019-05-10T03:00:36.248Z,12.94
2019-05-10T03:01:46.225Z,12.9
2019-05-10T03:02:56.184Z,12.9
2019-05-10T03:04:05.897Z,12.91
2019-05-10T03:05:15.625Z,12.83
2019-05-10T03:06:25.350Z,12.9
2019-05-10T03:07:34.819Z,12.87
2019-05-10T03:08:44.585Z,12.86
2019-05-10T03:09:54.548Z,12.94
2019-05-10T03:11:04.274Z,12.93
2019-05-10T03:12:13.990Z,12.86
2019-05-10T03:13:26.883Z,12.83
2019-05-10T03:14:36.723Z,12.84
2019-05-10T03:15:46.523Z,12.87
2019-05-10T03:16:56.033Z,12.91
2019-05-10T03:18:06.066Z,12.99
2019-05-10T03:19:16.071Z,12.83
2019-05-10T03:20:26.041Z,12.83
2019-05-10T03:21:35.537Z,12.83
2019-05-10T03:22:45.625Z,12.86
2019-05-10T03:23:55.643Z,12.86
2019-05-10T03:25:05.385Z,12.9
2019-05-10T03:26:15.344Z,12.95
2019-05-10T03:27:25.322Z,12.93
2019-05-10T03:28:35.338Z,12.87
2019-05-10T03:29:45.350Z,12.84
2019-05-10T03:30:55.374Z,12.78
2019-05-10T03:32:05.143Z,12.81
2019-05-10T03:33:15.186Z,12.8
2019-05-10T03:34:25.211Z,12.76
2019-05-10T03:35:34.997Z,12.78
2019-05-10T03:36:44.511Z,12.78
2019-05-10T03:37:54.024Z,12.73
2019-05-10T03:39:03.994Z,12.72
2019-05-10T03:40:13.960Z,12.75
2019-05-10T03:41:23.693Z,12.63
2019-05-10T03:42:33.679Z,12.66
2019-05-10T03:43:43.650Z,12.62
2019-05-10T03:44:53.390Z,12.5
2019-05-10T03:46:03.112Z,12.47
2019-05-10T03:47:12.978Z,12.5
2019-05-10T03:48:22.935Z,12.45
2019-05-10T03:49:32.419Z,12.39
2019-05-10T03:50:42.544Z,12.47
2019-05-10T03:51:52.010Z,12.44
2019-05-10T03:53:01.733Z,12.44
2019-05-10T03:54:11.463Z,12.32
2019-05-10T03:55:21.172Z,12.35
2019-05-10T03:56:32.555Z,12.39
2019-05-10T03:57:42.567Z,12.32
2019-05-10T03:58:52.561Z,12.36
2019-05-10T04:00:02.551Z,12.32
2019-05-10T04:01:12.531Z,12.45
2019-05-10T04:02:22.510Z,12.33
2019-05-10T04:03:32.493Z,12.39
2019-05-10T04:04:42.222Z,12.45
2019-05-10T04:05:51.997Z,12.4
2019-05-10T04:07:01.505Z,12.35
2019-05-10T04:08:11.293Z,12.36
2019-05-10T04:09:21.276Z,12.43
2019-05-10T04:10:31.020Z,12.33
2019-05-10T04:11:40.990Z,12.32
2019-05-10T04:12:51.037Z,12.37
2019-05-10T04:14:00.607Z,12.36
2019-05-10T04:15:10.322Z,12.36
2019-05-10T04:16:20.298Z,12.39
2019-05-10T04:17:30.007Z,12.39
2019-05-10T04:18:39.738Z,12.4
2019-05-10T04:19:49.236Z,12.36
2019-05-10T04:20:59.222Z,12.4
2019-05-10T04:22:09.207Z,12.4
2019-05-10T04:23:19.176Z,12.39
2019-05-10T04:24:29.149Z,12.47
2019-05-10T04:25:43.813Z,12.4
2019-05-10T04:26:53.790Z,12.43
2019-05-10T04:28:03.917Z,12.47
2019-05-10T04:29:13.651Z,12.53
2019-05-10T04:30:23.633Z,12.45
2019-05-10T04:31:37.009Z,12.44
2019-05-10T04:32:46.742Z,12.54
2019-05-10T04:33:56.807Z,12.4
2019-05-10T04:35:06.803Z,12.45
2019-05-10T04:36:17.846Z,12.47
2019-05-10T04:37:27.842Z,12.5
2019-05-10T04:38:37.616Z,12.5
2019-05-10T04:39:47.422Z,12.48
2019-05-10T04:40:57.132Z,12.45
2019-05-10T04:42:06.865Z,12.5
2019-05-10T04:43:16.480Z,12.45
2019-05-10T04:44:26.628Z,12.5
2019-05-10T04:45:36.376Z,12.55
2019-05-10T04:46:46.364Z,12.51
2019-05-10T04:47:56.417Z,12.53
2019-05-10T04:49:06.166Z,12.53
2019-05-10T04:50:15.930Z,12.53
2019-05-10T04:51:25.892Z,12.47
2019-05-10T04:52:35.879Z,12.62
2019-05-10T04:53:45.852Z,12.61
2019-05-10T04:54:55.848Z,12.61
2019-05-10T04:56:05.573Z,12.53
2019-05-10T04:57:15.299Z,12.68
2019-05-10T04:58:25.262Z,12.63
2019-05-10T04:59:35.261Z,12.62
2019-05-10T05:00:44.728Z,12.73
2019-05-10T05:01:54.726Z,12.76
2019-05-10T05:03:04.748Z,12.78
2019-05-10T05:04:14.497Z,12.73
2019-05-10T05:05:24.466Z,12.76
2019-05-10T05:06:34.237Z,12.69
2019-05-10T05:07:43.985Z,12.78
2019-05-10T05:08:54.059Z,12.75
2019-05-10T05:10:04.025Z,12.83
2019-05-10T05:11:13.746Z,12.81
2019-05-10T05:12:23.811Z,12.76
2019-05-10T05:13:33.848Z,12.81
2019-05-10T05:14:43.822Z,12.83
2019-05-10T05:15:53.801Z,12.78
2019-05-10T05:17:03.791Z,12.93
2019-05-10T05:18:13.515Z,12.78
2019-05-10T05:19:23.004Z,12.91
2019-05-10T05:20:32.465Z,12.81
2019-05-10T05:21:42.443Z,12.95
2019-05-10T05:22:52.207Z,12.99
2019-05-10T05:24:02.176Z,12.9
2019-05-10T05:25:12.149Z,12.88
2019-05-10T05:26:21.632Z,12.9
2019-05-10T05:27:31.354Z,12.93
2019-05-10T05:28:41.322Z,12.98
2019-05-10T05:29:51.035Z,13.01
2019-05-10T05:31:00.745Z,13.05
2019-05-10T05:32:13.313Z,13.05
2019-05-10T05:33:23.258Z,13.12
2019-05-10T05:34:32.978Z,13.05
2019-05-10T05:35:42.696Z,13.16
2019-05-10T05:36:52.402Z,13.09
2019-05-10T05:38:02.398Z,13.16
2019-05-10T05:39:12.407Z,13.11
2019-05-10T05:40:22.425Z,13.12
2019-05-10T05:41:47.514Z,13.11
2019-05-10T05:43:08.013Z,13.19
2019-05-10T05:44:25.975Z,13.2
2019-05-10T05:45:39.017Z,13.24
2019-05-10T05:46:48.752Z,13.31
2019-05-10T05:47:58.507Z,13.3
2019-05-10T05:49:08.246Z,13.4
2019-05-10T05:50:18.217Z,13.43
2019-05-10T05:51:28.200Z,13.43
2019-05-10T05:52:38.250Z,13.52
2019-05-10T05:53:49.810Z,13.5
2019-05-10T05:55:02.502Z,13.55
2019-05-10T05:56:17.829Z,13.58
2019-05-10T05:57:32.455Z,13.7
2019-05-10T05:58:49.581Z,13.76
2019-05-10T06:00:08.953Z,13.79
2019-05-10T06:01:32.109Z,13.87
2019-05-10T06:02:49.301Z,13.93
2019-05-10T06:04:06.200Z,14.03
2019-05-10T06:05:39.573Z,14.01
2019-05-10T06:06:53.591Z,14.03
2019-05-10T06:08:25.012Z,14
2019-05-10T06:09:42.502Z,14.03
2019-05-10T06:11:02.550Z,14.04
2019-05-10T06:12:17.551Z,14.18
2019-05-10T06:13:33.077Z,14.18
2019-05-10T06:14:52.529Z,14.19
2019-05-10T06:16:14.794Z,14.26
2019-05-10T06:17:32.231Z,14.28
2019-05-10T06:18:50.175Z,14.31
2019-05-10T06:20:07.956Z,14.33
2019-05-10T06:21:29.024Z,14.33
2019-05-10T06:23:05.492Z,14.43
2019-05-10T06:24:18.507Z,14.53
2019-05-10T06:25:45.326Z,14.53
2019-05-10T06:26:58.170Z,14.61
2019-05-10T06:29:04.028Z,14.53
2019-05-10T06:30:26.129Z,14.55
2019-05-10T06:31:36.125Z,14.52
2019-05-10T06:32:45.848Z,14.48
2019-05-10T06:34:17.642Z,14.45
2019-05-10T06:35:27.142Z,14.4
2019-05-10T06:36:37.132Z,14.44
2019-05-10T06:37:46.664Z,14.34
2019-05-10T06:38:56.406Z,14.26
2019-05-10T06:40:06.411Z,14.22
2019-05-10T06:41:21.905Z,14.28
2019-05-10T06:42:38.131Z,14.34
2019-05-10T06:43:54.195Z,14.31
2019-05-10T06:45:18.477Z,14.45
2019-05-10T06:46:33.813Z,14.53
2019-05-10T06:47:53.356Z,14.52
2019-05-10T06:49:13.447Z,14.63
2019-05-10T06:50:34.379Z,14.63
2019-05-10T06:51:51.916Z,14.63
2019-05-10T06:53:13.622Z,14.51
2019-05-10T06:54:23.612Z,14.62
2019-05-10T06:55:33.657Z,14.52
2019-05-10T06:56:43.382Z,14.61
2019-05-10T06:58:03.226Z,14.67
2019-05-10T06:59:24.710Z,14.63
2019-05-10T07:00:44.560Z,14.67
2019-05-10T07:01:57.024Z,14.7
2019-05-10T07:03:06.771Z,14.78
2019-05-10T07:04:16.530Z,14.73
2019-05-10T07:05:26.282Z,14.86
2019-05-10T07:06:36.288Z,14.82
2019-05-10T07:07:49.962Z,14.85
2019-05-10T07:09:12.319Z,14.78
2019-05-10T07:10:27.827Z,14.77
2019-05-10T07:11:41.541Z,14.92
2019-05-10T07:12:56.828Z,14.79
2019-05-10T07:14:14.502Z,14.77
2019-05-10T07:15:35.614Z,14.86
2019-05-10T07:16:56.467Z,14.97
2019-05-10T07:18:10.587Z,15.11
2019-05-10T07:19:34.753Z,15.22
2019-05-10T07:21:06.546Z,15.44
2019-05-10T07:22:21.527Z,15.43
2019-05-10T07:23:38.897Z,15.33
2019-05-10T07:25:07.438Z,15.23
2019-05-10T07:26:27.136Z,15.43
2019-05-10T07:27:41.829Z,15.48
2019-05-10T07:29:00.196Z,15.48
2019-05-10T07:30:09.947Z,15.29
2019-05-10T07:31:23.428Z,15.44
2019-05-10T07:32:33.402Z,15.47
2019-05-10T07:33:45.019Z,15.48
2019-05-10T07:35:05.207Z,15.48
2019-05-10T07:36:26.966Z,15.41
2019-05-10T07:37:39.371Z,15.5
2019-05-10T07:38:53.043Z,15.26
2019-05-10T07:40:08.197Z,15.17
2019-05-10T07:41:29.227Z,15.17
2019-05-10T07:42:45.405Z,15.17
2019-05-10T07:44:00.363Z,15.23
2019-05-10T07:45:18.598Z,15.15
2019-05-10T07:46:33.572Z,15.19
2019-05-10T07:47:54.143Z,15.15
2019-05-10T07:49:07.722Z,15.26
2019-05-10T07:50:17.430Z,15.37
2019-05-10T07:51:32.879Z,15.45
2019-05-10T07:52:48.841Z,15.44
2019-05-10T07:54:09.078Z,15.52
2019-05-10T07:55:31.907Z,15.66
2019-05-10T07:56:48.555Z,15.63
2019-05-10T07:58:07.673Z,15.51
2019-05-10T07:59:30.224Z,15.59
2019-05-10T08:01:00.839Z,15.59
2019-05-10T08:02:17.597Z,15.51
2019-05-10T08:03:29.765Z,15.51
2019-05-10T08:04:55.695Z,15.52
2019-05-10T08:06:10.857Z,15.5
2019-05-10T08:07:24.442Z,15.48
2019-05-10T08:08:39.034Z,15.63
2019-05-10T08:09:51.261Z,15.48
2019-05-10T08:11:01.835Z,15.39
2019-05-10T08:12:19.437Z,15.39
2019-05-10T08:13:30.910Z,15.48
2019-05-10T08:14:44.362Z,15.6
2019-05-10T08:16:05.271Z,15.65
2019-05-10T08:17:28.661Z,15.85
2019-05-10T08:18:55.555Z,16.09
2019-05-10T08:20:43.544Z,16
2019-05-10T08:22:19.506Z,15.98
2019-05-10T08:23:32.733Z,15.85
2019-05-10T08:24:56.267Z,15.94
2019-05-10T08:26:19.686Z,16.16
2019-05-10T08:27:34.805Z,16.22
2019-05-10T08:28:57.194Z,16.26
2019-05-10T08:30:33.149Z,16.29
2019-05-10T08:32:00.229Z,16.43
2019-05-10T08:33:17.020Z,16.54
2019-05-10T08:34:35.191Z,16.65
2019-05-10T08:36:08.016Z,16.72
2019-05-10T08:37:38.413Z,16.8
2019-05-10T08:39:13.936Z,16.86
2019-05-10T08:40:36.786Z,16.98
2019-05-10T08:42:27.326Z,17.13
2019-05-10T08:44:02.104Z,17.2
2019-05-10T08:45:29.297Z,17.24
2019-05-10T08:46:46.963Z,17.22
2019-05-10T08:48:09.448Z,17.07
2019-05-10T08:49:43.298Z,16.87
2019-05-10T08:51:52.202Z,16.66
2019-05-10T08:53:18.953Z,16.49
2019-05-10T08:54:32.813Z,16.36
2019-05-10T08:55:45.621Z,16.34
2019-05-10T08:57:07.947Z,16.34
2019-05-10T08:58:42.164Z,16.39
2019-05-10T09:00:08.656Z,16.58
2019-05-10T09:01:44.231Z,17.16
2019-05-10T09:03:22.695Z,17.6
2019-05-10T09:04:52.890Z,17.53
2019-05-10T09:06:19.312Z,17.16
2019-05-10T09:07:34.836Z,17.14
2019-05-10T09:09:01.451Z,16.99
2019-05-10T09:10:17.888Z,16.91
2019-05-10T09:11:29.300Z,16.65
2019-05-10T09:12:57.753Z,16.44
2019-05-10T09:14:24.058Z,16.34
2019-05-10T09:15:35.596Z,16.24
2019-05-10T09:17:08.356Z,16.02
2019-05-10T09:18:33.087Z,15.92
2019-05-10T09:19:54.299Z,16.02
2019-05-10T09:21:16.798Z,15.87
2019-05-10T09:22:42.327Z,15.91
2019-05-10T09:24:08.528Z,15.94
2019-05-10T09:25:28.724Z,15.98
2019-05-10T09:26:41.818Z,15.91
2019-05-10T09:28:16.598Z,16.03
2019-05-10T09:29:32.931Z,16.13
2019-05-10T09:31:21.768Z,16.4
2019-05-10T09:32:35.852Z,16.72
2019-05-10T09:33:56.829Z,16.97
2019-05-10T09:35:15.258Z,17.14
2019-05-10T09:36:38.728Z,17.17
2019-05-10T09:38:04.246Z,17.22
2019-05-10T09:39:27.136Z,17.23
2019-05-10T09:40:56.219Z,17.17
2019-05-10T09:42:33.194Z,17.04
2019-05-10T09:43:56.233Z,16.99
2019-05-10T09:45:12.797Z,16.92
2019-05-10T09:46:25.306Z,16.89
2019-05-10T09:47:37.864Z,16.82
2019-05-10T09:49:04.707Z,16.68
2019-05-10T09:50:40.985Z,16.59
2019-05-10T09:52:04.382Z,16.5
2019-05-10T09:53:32.971Z,16.34
2019-05-10T09:54:49.036Z,16.06
2019-05-10T09:56:07.830Z,15.84
2019-05-10T09:57:19.922Z,15.44
2019-05-10T09:58:30.987Z,15.3
2019-05-10T09:59:44.097Z,15.05
2019-05-10T10:01:09.397Z,14.87
2019-05-10T10:02:37.213Z,14.78
2019-05-10T10:03:53.451Z,14.66
2019-05-10T10:05:09.816Z,14.53
2019-05-10T10:06:19.786Z,14.37
2019-05-10T10:07:39.877Z,14.48
2019-05-10T10:08:57.682Z,14.45
2019-05-10T10:10:12.586Z,14.62
2019-05-10T10:11:37.184Z,14.78
2019-05-10T10:13:33.916Z,14.9
2019-05-10T10:15:02.708Z,15.11
2019-05-10T10:16:23.876Z,15.54
2019-05-10T10:17:42.680Z,15.96
2019-05-10T10:18:52.754Z,15.99
2019-05-10T10:20:02.562Z,16.12
2019-05-10T10:21:27.927Z,16.22
2019-05-10T10:22:55.546Z,16.29
2019-05-10T10:24:17.754Z,16.24
2019-05-10T10:25:40.438Z,16.25
2019-05-10T10:27:00.610Z,16.26
2019-05-10T10:28:25.201Z,16.37
2019-05-10T10:29:41.238Z,16.18
2019-05-10T10:31:08.510Z,16.02
2019-05-10T10:32:40.149Z,15.72
2019-05-10T10:34:07.511Z,15.47
2019-05-10T10:35:27.516Z,15.36
2019-05-10T10:36:47.479Z,15.26
2019-05-10T10:38:07.726Z,15.15
2019-05-10T10:39:22.770Z,15.12
2019-05-10T10:40:47.078Z,15.11
2019-05-10T10:42:02.345Z,15.27
2019-05-10T10:43:20.188Z,15.29
2019-05-10T10:44:32.485Z,15.37
2019-05-10T10:45:44.226Z,15.51
2019-05-10T10:46:54.173Z,15.52
2019-05-10T10:48:15.290Z,15.63
2019-05-10T10:49:32.977Z,15.69
2019-05-10T10:50:58.577Z,15.57
2019-05-10T10:52:14.061Z,15.78
2019-05-10T10:53:24.905Z,15.75
2019-05-10T10:54:42.441Z,15.8
2019-05-10T10:56:07.673Z,15.85
2019-05-10T10:57:20.401Z,16
2019-05-10T10:58:32.391Z,16
2019-05-10T10:59:42.086Z,16.05
2019-05-10T11:00:53.098Z,16.06
2019-05-10T11:02:36.455Z,15.85
2019-05-10T11:03:53.885Z,15.83
2019-05-10T11:05:12.119Z,15.85
2019-05-10T11:06:21.839Z,15.99
2019-05-10T11:07:36.416Z,16.03
2019-05-10T11:08:54.287Z,16.22
2019-05-10T11:10:22.431Z,16.36
2019-05-10T11:11:47.046Z,16.64
2019-05-10T11:13:10.835Z,16.8
2019-05-10T11:14:50.456Z,16.91
2019-05-10T11:16:15.494Z,16.84
2019-05-10T11:17:30.577Z,16.82
2019-05-10T11:18:41.780Z,16.69
2019-05-10T11:19:51.931Z,16.86
2019-05-10T11:21:04.483Z,16.99
2019-05-10T11:22:16.287Z,16.98
2019-05-10T11:23:42.047Z,16.91
2019-05-10T11:25:12.808Z,16.8
2019-05-10T11:26:31.625Z,16.94
2019-05-10T11:27:53.678Z,17.1
2019-05-10T11:29:06.929Z,17.04
2019-05-10T11:30:32.431Z,16.97
2019-05-10T11:31:43.941Z,16.92
2019-05-10T11:33:36.227Z,16.95
2019-05-10T11:34:52.693Z,16.91
2019-05-10T11:36:13.793Z,16.8
2019-05-10T11:37:41.982Z,16.69
2019-05-10T11:39:05.789Z,16.66
2019-05-10T11:40:41.835Z,16.61
2019-05-10T11:42:11.440Z,16.47
2019-05-10T11:43:31.305Z,16.44
2019-05-10T11:44:56.863Z,16.37
2019-05-10T11:46:08.433Z,16.44
2019-05-10T11:47:33.350Z,16.36
2019-05-10T11:48:46.498Z,16.44
2019-05-10T11:49:58.701Z,16.47
2019-05-10T11:51:23.645Z,16.5
2019-05-10T11:54:41.500Z,16.73
2019-05-10T11:55:54.211Z,16.89
2019-05-10T11:57:16.346Z,17.12
2019-05-10T11:58:31.044Z,17.19
2019-05-10T12:03:46.402Z,17.97
2019-05-10T12:05:01.085Z,18.18
2019-05-10T12:06:34.350Z,18.34
2019-05-10T12:08:01.927Z,18.36
2019-05-10T12:09:14.733Z,18.39
2019-05-10T12:10:31.979Z,18.73
2019-05-10T12:12:05.591Z,19.19
2019-05-10T12:13:27.518Z,19.19
2019-05-10T12:14:43.608Z,19.2
2019-05-10T12:15:59.334Z,19.55
2019-05-10T12:17:16.977Z,19.72
2019-05-10T12:18:46.110Z,19.72
2019-05-10T12:22:31.905Z,19.32
2019-05-10T12:27:43.945Z,18.45
2019-05-10T12:29:16.890Z,18
2019-05-10T12:30:34.748Z,17.28
2019-05-10T12:31:53.219Z,17.01
2019-05-10T12:33:27.690Z,16.51
2019-05-10T12:34:40.984Z,16.44
2019-05-10T12:35:59.291Z,16.34
2019-05-10T12:37:13.198Z,16.25
2019-05-10T12:38:35.814Z,16.09
2019-05-10T12:39:45.946Z,16.26
2019-05-10T12:40:58.319Z,16.25
2019-05-10T12:42:16.621Z,16.28
2019-05-10T12:43:30.697Z,16.28
2019-05-10T12:44:51.596Z,16.31
2019-05-10T12:46:03.384Z,16.31
2019-05-10T12:47:16.259Z,16.28
2019-05-10T12:48:28.422Z,16
2019-05-10T12:49:43.359Z,15.87
2019-05-10T12:51:01.911Z,15.7
2019-05-10T12:52:28.510Z,15.62
2019-05-10T12:53:49.137Z,15.52
2019-05-10T12:54:59.967Z,15.51
2019-05-10T12:56:09.474Z,15.43
2019-05-10T12:57:19.189Z,15.51
2019-05-10T12:58:28.916Z,15.6
2019-05-10T12:59:39.809Z,15.75
2019-05-10T13:00:58.730Z,15.88
2019-05-10T13:02:15.710Z,15.85
2019-05-10T13:03:36.289Z,15.76
2019-05-10T13:04:52.352Z,15.75
2019-05-10T13:06:02.262Z,15.76
2019-05-10T13:07:12.226Z,15.94
2019-05-10T13:08:22.016Z,16
2019-05-10T13:09:44.414Z,15.85
2019-05-10T13:11:08.047Z,15.99
2019-05-10T13:12:17.512Z,15.87
2019-05-10T13:13:34.052Z,15.76
2019-05-10T13:14:54.892Z,15.73
2019-05-10T13:16:13.914Z,15.72
2019-05-10T13:17:23.610Z,15.73
2019-05-10T13:18:55.404Z,15.52
2019-05-10T13:20:05.526Z,15.5
2019-05-10T13:21:25.602Z,15.41
2019-05-10T13:22:44.018Z,15.52
2019-05-10T13:23:58.375Z,15.55
2019-05-10T13:25:08.165Z,15.66
2019-05-10T13:26:18.166Z,15.66
2019-05-10T13:27:27.973Z,15.67
2019-05-10T13:28:37.694Z,15.63
2019-05-10T13:29:56.023Z,15.62
2019-05-10T13:31:10.647Z,15.67
2019-05-10T13:32:25.710Z,15.73
2019-05-10T13:33:46.852Z,15.75
2019-05-10T13:34:56.913Z,15.75
2019-05-10T13:36:06.896Z,15.83
2019-05-10T13:37:27.492Z,15.92
2019-05-10T13:38:49.118Z,16.03
2019-05-10T13:40:08.676Z,16.03
2019-05-10T13:41:28.451Z,16.21
2019-05-10T13:42:48.523Z,16.32
2019-05-10T13:44:04.771Z,16.34
2019-05-10T13:45:15.225Z,16.43
2019-05-10T13:46:25.192Z,16.5
2019-05-10T13:47:35.420Z,16.39
2019-05-10T13:48:45.387Z,16.39
2019-05-10T13:49:55.370Z,16.36
2019-05-10T13:51:05.435Z,16.44
2019-05-10T13:52:15.406Z,16.4
2019-05-10T13:53:27.944Z,16.46
2019-05-10T13:54:41.175Z,16.44
2019-05-10T13:55:50.661Z,16.49
2019-05-10T13:57:00.193Z,16.51
2019-05-10T13:58:10.164Z,16.58
2019-05-10T13:59:22.693Z,16.72
2019-05-10T14:00:38.636Z,16.76
2019-05-10T14:01:52.526Z,16.77
2019-05-10T14:03:11.252Z,16.94
2019-05-10T14:04:25.262Z,17.05
2019-05-10T14:05:42.538Z,17.04
2019-05-10T14:06:52.510Z,17.04
2019-05-10T14:08:02.489Z,17.09
2019-05-10T14:09:12.458Z,17.3
2019-05-10T14:10:28.494Z,17.47
2019-05-10T14:11:49.221Z,17.68
2019-05-10T14:13:05.096Z,17.82
2019-05-10T14:14:26.560Z,17.9
2019-05-10T14:15:36.196Z,18.08
2019-05-10T14:16:45.919Z,18.09
2019-05-10T14:17:55.653Z,18.11
2019-05-10T14:19:05.687Z,18.31
2019-05-10T14:20:30.543Z,18.36
2019-05-10T14:21:40.520Z,18.31
2019-05-10T14:23:01.516Z,18.33
2019-05-10T14:24:17.819Z,18.23
2019-05-10T14:25:36.104Z,18.03
2019-05-10T14:26:51.300Z,18.08
2019-05-10T14:28:09.497Z,17.95
2019-05-10T14:29:36.796Z,17.93
2019-05-10T14:30:59.808Z,18.05
2019-05-10T14:32:09.784Z,18.06
2019-05-10T14:33:21.777Z,18.12
2019-05-10T14:34:31.737Z,18.27
2019-05-10T14:35:49.684Z,18.33
2019-05-10T14:37:06.116Z,18.58
2019-05-10T14:38:22.599Z,18.7
2019-05-10T14:39:32.894Z,18.82
2019-05-10T14:40:42.621Z,18.74
2019-05-10T14:41:56.110Z,18.6
2019-05-10T14:43:05.320Z,18.46
2019-05-10T14:44:15.293Z,18.39
2019-05-10T14:45:25.254Z,18.43
2019-05-10T14:46:35.228Z,18.37
2019-05-10T14:47:54.695Z,18.15
2019-05-10T14:49:14.329Z,18.11
2019-05-10T14:50:31.044Z,18.16
2019-05-10T14:52:02.143Z,18.09
2019-05-10T14:53:12.102Z,18.11
2019-05-10T14:54:49.652Z,18.12
2019-05-10T14:56:07.807Z,18.21
2019-05-10T14:57:23.090Z,18.03
2019-05-10T14:58:32.814Z,18.11
2019-05-10T14:59:42.780Z,18.18
2019-05-10T15:00:52.544Z,18.13
2019-05-10T15:02:02.248Z,18.08
2019-05-10T15:03:11.974Z,18.09
2019-05-10T15:04:47.277Z,18.02
2019-05-10T15:06:04.033Z,17.97
2019-05-10T15:07:19.454Z,18.06
2019-05-10T15:08:29.439Z,17.94
2019-05-10T15:09:39.400Z,17.88
2019-05-10T15:10:49.367Z,17.93
2019-05-10T15:12:02.331Z,17.9
2019-05-10T15:13:19.480Z,17.75
2019-05-10T15:14:35.414Z,17.78
2019-05-10T15:15:45.471Z,17.71
2019-05-10T15:16:55.194Z,17.69
2019-05-10T15:18:07.002Z,17.47
2019-05-10T15:19:16.973Z,17.42
2019-05-10T15:20:31.186Z,17.3
2019-05-10T15:21:43.064Z,17.22
2019-05-10T15:22:53.029Z,17.19
2019-05-10T15:24:06.047Z,17.07
2019-05-10T15:25:16.107Z,17.13
2019-05-10T15:26:25.827Z,17.19
2019-05-10T15:27:35.548Z,17.23
2019-05-10T15:28:47.507Z,17.39
2019-05-10T15:30:04.995Z,17.54
2019-05-10T15:31:15.940Z,17.73
2019-05-10T15:32:29.037Z,17.75
2019-05-10T15:33:38.238Z,17.75
2019-05-10T15:35:08.806Z,17.93
2019-05-10T15:36:23.517Z,17.88
2019-05-10T15:37:40.615Z,17.88
2019-05-10T15:38:56.966Z,17.88
2019-05-10T15:40:11.045Z,17.69
2019-05-10T15:41:26.773Z,17.63
2019-05-10T15:42:40.960Z,17.34
2019-05-10T15:43:57.731Z,17.16
2019-05-10T15:45:15.517Z,17.14
2019-05-10T15:46:42.217Z,16.91
2019-05-10T15:48:02.721Z,16.49
2019-05-10T15:49:21.056Z,16.22
2019-05-10T15:52:46.147Z,15.52
2019-05-10T15:54:07.391Z,15.37
2019-05-10T15:55:29.279Z,15.14
2019-05-10T15:56:44.386Z,15.22
2019-05-10T15:58:00.417Z,15.22
2019-05-10T15:59:18.886Z,15.12
2019-05-10T16:00:41.531Z,15.15
2019-05-10T16:01:51.655Z,15.27
2019-05-10T16:03:01.661Z,15.35
2019-05-10T16:04:11.633Z,15.45
2019-05-10T16:05:58.778Z,15.44
2019-05-10T16:07:17.275Z,15.66
2019-05-10T16:08:34.480Z,15.87
2019-05-10T16:09:44.197Z,16
2019-05-10T16:11:01.622Z,16.34
2019-05-10T16:12:23.479Z,16.55
2019-05-10T16:13:33.255Z,16.64
2019-05-10T16:14:47.967Z,16.8
2019-05-10T16:16:02.647Z,16.94
2019-05-10T16:17:23.710Z,17.12
2019-05-10T16:18:44.180Z,17.12
2019-05-10T16:20:02.301Z,17.22
2019-05-10T16:21:17.761Z,17.12
2019-05-10T16:22:32.823Z,17.31
2019-05-10T16:23:49.214Z,17.12
2019-05-10T16:25:05.437Z,16.94
2019-05-10T16:26:22.768Z,17.01
2019-05-10T16:27:40.388Z,17.14